sensor_id;sensor_type;location;lat;lon;timestamp;pressure;altitude;pressure_sealevel;temperature;humidity
68380;BME280;57711;53.196;19.638;2022-12-28T00:01:24;100731.23;;;2.83;72.95
68380;BME280;57711;53.196;19.638;2022-12-28T00:03:53;100733.65;;;2.82;72.96
68380;BME280;57711;53.196;19.638;2022-12-28T00:06:22;100729.23;;;2.81;72.97
68380;BME280;57711;53.196;19.638;2022-12-28T00:08:54;100727.30;;;2.80;72.98
68380;BME280;57711;53.196;19.638;2022-12-28T00:11:25;100726.37;;;2.77;73.05
68380;BME280;57711;53.196;19.638;2022-12-28T00:13:58;100722.91;;;2.75;73.02
68380;BME280;57711;53.196;19.638;2022-12-28T00:16:35;100721.86;;;2.75;73.04
68380;BME280;57711;53.196;19.638;2022-12-28T00:19:05;100721.52;;;2.75;73.05
68380;BME280;57711;53.196;19.638;2022-12-28T00:21:33;100721.74;;;2.74;73.17
68380;BME280;57711;53.196;19.638;2022-12-28T00:24:01;100726.92;;;2.74;73.16
68380;BME280;57711;53.196;19.638;2022-12-28T00:26:30;100733.16;;;2.74;73.15
68380;BME280;57711;53.196;19.638;2022-12-28T00:28:58;100730.77;;;2.75;73.09
68380;BME280;57711;53.196;19.638;2022-12-28T00:31:32;100735.86;;;2.77;73.02
68380;BME280;57711;53.196;19.638;2022-12-28T00:34:00;100733.16;;;2.77;73.08
68380;BME280;57711;53.196;19.638;2022-12-28T00:36:27;100731.16;;;2.78;73.20
68380;BME280;57711;53.196;19.638;2022-12-28T00:39:14;100729.89;;;2.78;73.12
68380;BME280;57711;53.196;19.638;2022-12-28T00:41:41;100732.05;;;2.78;73.11
68380;BME280;57711;53.196;19.638;2022-12-28T00:44:09;100735.19;;;2.76;72.98
68380;BME280;57711;53.196;19.638;2022-12-28T00:46:37;100733.27;;;2.75;73.03
68380;BME280;57711;53.196;19.638;2022-12-28T00:49:04;100736.25;;;2.72;72.90
68380;BME280;57711;53.196;19.638;2022-12-28T00:51:32;100736.94;;;2.70;73.03
68380;BME280;57711;53.196;19.638;2022-12-28T00:53:59;100733.42;;;2.69;73.07
68380;BME280;57711;53.196;19.638;2022-12-28T00:56:26;100732.85;;;2.65;72.94
68380;BME280;57711;53.196;19.638;2022-12-28T00:58:55;100735.48;;;2.62;72.96
68380;BME280;57711;53.196;19.638;2022-12-28T01:01:24;100732.88;;;2.61;72.86
68380;BME280;57711;53.196;19.638;2022-12-28T01:03:54;100730.19;;;2.57;72.94
68380;BME280;57711;53.196;19.638;2022-12-28T01:06:23;100728.14;;;2.52;72.80
68380;BME280;57711;53.196;19.638;2022-12-28T01:08:51;100727.45;;;2.48;72.98
68380;BME280;57711;53.196;19.638;2022-12-28T01:11:22;100724.90;;;2.45;73.06
68380;BME280;57711;53.196;19.638;2022-12-28T01:13:53;100727.60;;;2.45;73.02
68380;BME280;57711;53.196;19.638;2022-12-28T01:16:25;100727.36;;;2.42;72.91
68380;BME280;57711;53.196;19.638;2022-12-28T01:18:56;100726.65;;;2.38;72.91
68380;BME280;57711;53.196;19.638;2022-12-28T01:21:26;100721.85;;;2.34;72.90
68380;BME280;57711;53.196;19.638;2022-12-28T01:23:56;100719.88;;;2.31;72.95
68380;BME280;57711;53.196;19.638;2022-12-28T01:26:24;100721.78;;;2.32;72.97
68380;BME280;57711;53.196;19.638;2022-12-28T01:28:54;100720.20;;;2.31;72.78
68380;BME280;57711;53.196;19.638;2022-12-28T01:31:22;100717.53;;;2.27;72.75
68380;BME280;57711;53.196;19.638;2022-12-28T01:33:50;100714.00;;;2.23;72.78
68380;BME280;57711;53.196;19.638;2022-12-28T01:36:19;100719.86;;;2.19;72.86
68380;BME280;57711;53.196;19.638;2022-12-28T01:38:47;100719.91;;;2.18;72.91
68380;BME280;57711;53.196;19.638;2022-12-28T01:41:19;100713.45;;;2.19;73.03
68380;BME280;57711;53.196;19.638;2022-12-28T01:46:18;100708.52;;;2.22;72.92
68380;BME280;57711;53.196;19.638;2022-12-28T01:49:09;100704.94;;;2.26;72.92
68380;BME280;57711;53.196;19.638;2022-12-28T01:55:02;100706.42;;;2.25;72.78
68380;BME280;57711;53.196;19.638;2022-12-28T01:57:33;100704.74;;;2.19;72.80
68380;BME280;57711;53.196;19.638;2022-12-28T02:00:13;100700.90;;;2.13;72.78
68380;BME280;57711;53.196;19.638;2022-12-28T02:02:51;100701.27;;;2.09;72.75
68380;BME280;57711;53.196;19.638;2022-12-28T02:05:23;100699.84;;;2.05;72.75
68380;BME280;57711;53.196;19.638;2022-12-28T02:08:03;100701.38;;;2.03;72.73
68380;BME280;57711;53.196;19.638;2022-12-28T02:10:32;100699.27;;;2.03;72.92
68380;BME280;57711;53.196;19.638;2022-12-28T02:13:13;100700.29;;;1.99;72.97
68380;BME280;57711;53.196;19.638;2022-12-28T02:15:41;100699.95;;;1.95;72.86
68380;BME280;57711;53.196;19.638;2022-12-28T02:18:12;100692.27;;;1.92;72.92
68380;BME280;57711;53.196;19.638;2022-12-28T02:21:00;100692.23;;;1.93;72.96
68380;BME280;57711;53.196;19.638;2022-12-28T02:26:53;100688.94;;;1.86;72.83
68380;BME280;57711;53.196;19.638;2022-12-28T02:29:52;100686.30;;;1.82;72.99
68380;BME280;57711;53.196;19.638;2022-12-28T02:35:53;100686.05;;;1.87;73.01
68380;BME280;57711;53.196;19.638;2022-12-28T02:38:46;100678.67;;;1.88;73.07
68380;BME280;57711;53.196;19.638;2022-12-28T02:41:20;100680.16;;;1.92;73.09
68380;BME280;57711;53.196;19.638;2022-12-28T02:43:48;100680.73;;;1.91;73.14
68380;BME280;57711;53.196;19.638;2022-12-28T02:46:24;100677.55;;;1.90;73.07
68380;BME280;57711;53.196;19.638;2022-12-28T02:49:19;100671.98;;;1.91;73.05
68380;BME280;57711;53.196;19.638;2022-12-28T03:06:13;100654.30;;;1.83;73.09
68380;BME280;57711;53.196;19.638;2022-12-28T03:09:18;100649.16;;;1.83;73.21
68380;BME280;57711;53.196;19.638;2022-12-28T03:11:58;100640.86;;;1.85;73.25
68380;BME280;57711;53.196;19.638;2022-12-28T03:14:57;100639.50;;;1.87;73.25
68380;BME280;57711;53.196;19.638;2022-12-28T03:17:23;100638.35;;;1.89;73.15
68380;BME280;57711;53.196;19.638;2022-12-28T03:20:15;100636.53;;;1.90;73.18
68380;BME280;57711;53.196;19.638;2022-12-28T03:23:07;100642.24;;;1.90;73.21
68380;BME280;57711;53.196;19.638;2022-12-28T03:25:56;100635.61;;;1.91;73.38
68380;BME280;57711;53.196;19.638;2022-12-28T03:28:45;100632.58;;;1.94;73.27
68380;BME280;57711;53.196;19.638;2022-12-28T03:31:36;100640.32;;;1.97;73.23
68380;BME280;57711;53.196;19.638;2022-12-28T03:34:06;100646.96;;;1.96;73.09
68380;BME280;57711;53.196;19.638;2022-12-28T03:41:58;100636.99;;;1.95;73.31
68380;BME280;57711;53.196;19.638;2022-12-28T03:44:54;100646.91;;;1.97;73.19
68380;BME280;57711;53.196;19.638;2022-12-28T03:47:24;100642.64;;;1.97;73.21
68380;BME280;57711;53.196;19.638;2022-12-28T03:49:52;100643.61;;;1.99;73.35
68380;BME280;57711;53.196;19.638;2022-12-28T03:52:20;100646.54;;;2.01;73.36
68380;BME280;57711;53.196;19.638;2022-12-28T03:54:47;100642.58;;;2.02;73.30
68380;BME280;57711;53.196;19.638;2022-12-28T03:57:15;100637.30;;;2.04;73.37
68380;BME280;57711;53.196;19.638;2022-12-28T03:59:44;100630.00;;;2.07;73.15
68380;BME280;57711;53.196;19.638;2022-12-28T04:02:11;100628.08;;;2.06;73.28
68380;BME280;57711;53.196;19.638;2022-12-28T04:04:39;100623.69;;;2.05;73.28
68380;BME280;57711;53.196;19.638;2022-12-28T04:07:06;100618.16;;;2.05;73.28
68380;BME280;57711;53.196;19.638;2022-12-28T04:09:34;100616.61;;;2.04;73.19
68380;BME280;57711;53.196;19.638;2022-12-28T04:12:02;100611.16;;;2.02;73.18
68380;BME280;57711;53.196;19.638;2022-12-28T04:14:55;100606.77;;;2.01;73.09
68380;BME280;57711;53.196;19.638;2022-12-28T04:17:23;100608.15;;;2.02;73.18
68380;BME280;57711;53.196;19.638;2022-12-28T04:19:50;100605.60;;;1.99;73.07
68380;BME280;57711;53.196;19.638;2022-12-28T04:22:17;100605.98;;;1.95;73.05
68380;BME280;57711;53.196;19.638;2022-12-28T04:24:44;100606.19;;;1.91;73.07
68380;BME280;57711;53.196;19.638;2022-12-28T04:27:11;100608.25;;;1.88;73.18
68380;BME280;57711;53.196;19.638;2022-12-28T04:29:39;100614.30;;;1.88;73.15
68380;BME280;57711;53.196;19.638;2022-12-28T04:32:11;100617.69;;;1.89;73.04
68380;BME280;57711;53.196;19.638;2022-12-28T04:34:38;100615.63;;;1.87;73.12
68380;BME280;57711;53.196;19.638;2022-12-28T04:37:13;100617.40;;;1.87;73.17
68380;BME280;57711;53.196;19.638;2022-12-28T04:39:41;100612.86;;;1.86;73.17
68380;BME280;57711;53.196;19.638;2022-12-28T04:42:24;100607.98;;;1.86;73.28
68380;BME280;57711;53.196;19.638;2022-12-28T04:44:52;100601.86;;;1.92;73.37
68380;BME280;57711;53.196;19.638;2022-12-28T04:47:19;100604.47;;;1.97;73.19
68380;BME280;57711;53.196;19.638;2022-12-28T04:49:46;100609.64;;;1.97;73.04
68380;BME280;57711;53.196;19.638;2022-12-28T04:52:13;100613.58;;;1.97;73.18
68380;BME280;57711;53.196;19.638;2022-12-28T04:54:41;100618.77;;;1.93;73.09
68380;BME280;57711;53.196;19.638;2022-12-28T04:57:08;100615.38;;;1.88;73.16
68380;BME280;57711;53.196;19.638;2022-12-28T04:59:35;100620.38;;;1.84;73.11
68380;BME280;57711;53.196;19.638;2022-12-28T05:02:02;100619.30;;;1.81;73.05
68380;BME280;57711;53.196;19.638;2022-12-28T05:04:30;100618.98;;;1.84;73.16
68380;BME280;57711;53.196;19.638;2022-12-28T05:06:57;100615.77;;;1.84;73.08
68380;BME280;57711;53.196;19.638;2022-12-28T05:09:24;100608.59;;;1.85;73.23
68380;BME280;57711;53.196;19.638;2022-12-28T05:11:51;100596.09;;;1.86;73.17
68380;BME280;57711;53.196;19.638;2022-12-28T05:14:18;100591.91;;;1.83;73.20
68380;BME280;57711;53.196;19.638;2022-12-28T05:16:49;100580.67;;;1.80;73.13
68380;BME280;57711;53.196;19.638;2022-12-28T05:19:17;100577.75;;;1.81;73.15
68380;BME280;57711;53.196;19.638;2022-12-28T05:21:44;100567.27;;;1.80;73.09
68380;BME280;57711;53.196;19.638;2022-12-28T05:24:11;100557.97;;;1.81;73.24
68380;BME280;57711;53.196;19.638;2022-12-28T05:26:38;100554.92;;;1.81;73.22
68380;BME280;57711;53.196;19.638;2022-12-28T05:29:05;100551.89;;;1.78;73.15
68380;BME280;57711;53.196;19.638;2022-12-28T05:31:33;100542.81;;;1.74;73.16
68380;BME280;57711;53.196;19.638;2022-12-28T05:34:00;100540.68;;;1.74;73.05
68380;BME280;57711;53.196;19.638;2022-12-28T05:36:27;100539.42;;;1.70;73.00
68380;BME280;57711;53.196;19.638;2022-12-28T05:38:55;100537.23;;;1.68;72.95
68380;BME280;57711;53.196;19.638;2022-12-28T05:41:24;100539.89;;;1.68;73.15
68380;BME280;57711;53.196;19.638;2022-12-28T05:43:53;100538.17;;;1.66;73.13
68380;BME280;57711;53.196;19.638;2022-12-28T05:46:24;100530.33;;;1.63;73.17
68380;BME280;57711;53.196;19.638;2022-12-28T05:48:53;100531.22;;;1.63;73.20
68380;BME280;57711;53.196;19.638;2022-12-28T05:51:28;100532.58;;;1.64;73.14
68380;BME280;57711;53.196;19.638;2022-12-28T05:53:57;100523.23;;;1.66;73.18
68380;BME280;57711;53.196;19.638;2022-12-28T05:56:27;100520.71;;;1.70;73.33
68380;BME280;57711;53.196;19.638;2022-12-28T05:58:59;100525.86;;;1.70;73.30
68380;BME280;57711;53.196;19.638;2022-12-28T06:01:30;100513.48;;;1.72;73.37
68380;BME280;57711;53.196;19.638;2022-12-28T06:04:13;100516.56;;;1.75;73.51
68380;BME280;57711;53.196;19.638;2022-12-28T06:06:41;100509.77;;;1.71;73.27
68380;BME280;57711;53.196;19.638;2022-12-28T06:09:08;100510.16;;;1.71;73.19
68380;BME280;57711;53.196;19.638;2022-12-28T06:11:35;100518.06;;;1.70;73.18
68380;BME280;57711;53.196;19.638;2022-12-28T06:14:03;100512.52;;;1.66;73.19
68380;BME280;57711;53.196;19.638;2022-12-28T06:16:34;100514.28;;;1.63;73.26
68380;BME280;57711;53.196;19.638;2022-12-28T06:19:04;100508.54;;;1.64;73.31
68380;BME280;57711;53.196;19.638;2022-12-28T06:21:33;100506.52;;;1.65;73.33
68380;BME280;57711;53.196;19.638;2022-12-28T06:24:01;100502.73;;;1.66;73.24
68380;BME280;57711;53.196;19.638;2022-12-28T06:26:30;100493.38;;;1.67;73.29
68380;BME280;57711;53.196;19.638;2022-12-28T06:28:58;100495.50;;;1.72;73.34
68380;BME280;57711;53.196;19.638;2022-12-28T06:31:34;100498.83;;;1.73;73.30
68380;BME280;57711;53.196;19.638;2022-12-28T06:34:03;100505.05;;;1.69;73.31
68380;BME280;57711;53.196;19.638;2022-12-28T06:36:33;100508.77;;;1.66;73.30
68380;BME280;57711;53.196;19.638;2022-12-28T06:39:02;100498.96;;;1.63;73.21
68380;BME280;57711;53.196;19.638;2022-12-28T06:41:30;100505.05;;;1.62;73.33
68380;BME280;57711;53.196;19.638;2022-12-28T06:43:58;100500.10;;;1.58;73.17
68380;BME280;57711;53.196;19.638;2022-12-28T06:46:27;100499.35;;;1.55;73.22
68380;BME280;57711;53.196;19.638;2022-12-28T06:48:55;100492.14;;;1.53;73.27
68380;BME280;57711;53.196;19.638;2022-12-28T06:51:25;100495.49;;;1.53;73.20
68380;BME280;57711;53.196;19.638;2022-12-28T06:53:52;100489.69;;;1.52;73.23
68380;BME280;57711;53.196;19.638;2022-12-28T06:56:22;100482.31;;;1.54;73.35
68380;BME280;57711;53.196;19.638;2022-12-28T06:58:51;100474.04;;;1.51;73.36
68380;BME280;57711;53.196;19.638;2022-12-28T07:01:35;100477.73;;;1.52;73.44
68380;BME280;57711;53.196;19.638;2022-12-28T07:04:04;100472.64;;;1.58;73.48
68380;BME280;57711;53.196;19.638;2022-12-28T07:06:37;100464.25;;;1.62;73.39
68380;BME280;57711;53.196;19.638;2022-12-28T07:09:08;100469.17;;;1.63;73.38
68380;BME280;57711;53.196;19.638;2022-12-28T07:11:36;100467.63;;;1.62;73.48
68380;BME280;57711;53.196;19.638;2022-12-28T07:14:03;100475.27;;;1.62;73.47
68380;BME280;57711;53.196;19.638;2022-12-28T07:16:31;100474.11;;;1.64;73.49
68380;BME280;57711;53.196;19.638;2022-12-28T07:18:58;100476.46;;;1.64;73.33
68380;BME280;57711;53.196;19.638;2022-12-28T07:21:28;100471.44;;;1.64;73.43
68380;BME280;57711;53.196;19.638;2022-12-28T07:23:56;100469.12;;;1.64;73.50
68380;BME280;57711;53.196;19.638;2022-12-28T07:26:26;100467.91;;;1.64;73.55
68380;BME280;57711;53.196;19.638;2022-12-28T07:28:55;100467.02;;;1.64;73.43
68380;BME280;57711;53.196;19.638;2022-12-28T07:31:26;100466.79;;;1.65;73.44
68380;BME280;57711;53.196;19.638;2022-12-28T07:33:55;100464.69;;;1.67;73.49
68380;BME280;57711;53.196;19.638;2022-12-28T07:36:23;100469.89;;;1.67;73.40
68380;BME280;57711;53.196;19.638;2022-12-28T07:38:51;100466.35;;;1.66;73.37
68380;BME280;57711;53.196;19.638;2022-12-28T07:41:24;100462.05;;;1.66;73.47
68380;BME280;57711;53.196;19.638;2022-12-28T07:43:52;100459.86;;;1.68;73.46
68380;BME280;57711;53.196;19.638;2022-12-28T07:46:22;100468.08;;;1.67;73.42
68380;BME280;57711;53.196;19.638;2022-12-28T07:48:50;100468.13;;;1.66;73.47
68380;BME280;57711;53.196;19.638;2022-12-28T07:51:29;100458.13;;;1.67;73.59
68380;BME280;57711;53.196;19.638;2022-12-28T07:53:58;100453.02;;;1.69;73.41
68380;BME280;57711;53.196;19.638;2022-12-28T07:56:26;100446.16;;;1.71;73.55
68380;BME280;57711;53.196;19.638;2022-12-28T07:58:59;100446.02;;;1.74;73.60
68380;BME280;57711;53.196;19.638;2022-12-28T08:01:28;100437.04;;;1.75;73.55
68380;BME280;57711;53.196;19.638;2022-12-28T08:04:01;100432.20;;;1.79;73.75
68380;BME280;57711;53.196;19.638;2022-12-28T08:06:32;100438.77;;;1.83;73.64
68380;BME280;57711;53.196;19.638;2022-12-28T08:09:00;100441.38;;;1.88;73.69
68380;BME280;57711;53.196;19.638;2022-12-28T08:11:30;100444.05;;;1.92;73.55
68380;BME280;57711;53.196;19.638;2022-12-28T08:13:59;100447.08;;;1.92;73.58
68380;BME280;57711;53.196;19.638;2022-12-28T08:16:28;100436.84;;;1.90;73.56
68380;BME280;57711;53.196;19.638;2022-12-28T08:18:56;100433.83;;;1.89;73.66
68380;BME280;57711;53.196;19.638;2022-12-28T08:21:26;100432.66;;;1.91;73.62
68380;BME280;57711;53.196;19.638;2022-12-28T08:23:54;100435.17;;;1.95;73.53
68380;BME280;57711;53.196;19.638;2022-12-28T08:26:28;100439.33;;;1.94;73.45
68380;BME280;57711;53.196;19.638;2022-12-28T08:28:58;100430.66;;;1.92;73.61
68380;BME280;57711;53.196;19.638;2022-12-28T08:31:28;100429.38;;;1.93;73.58
68380;BME280;57711;53.196;19.638;2022-12-28T08:33:57;100428.61;;;1.94;73.53
68380;BME280;57711;53.196;19.638;2022-12-28T08:36:25;100420.51;;;1.96;73.48
68380;BME280;57711;53.196;19.638;2022-12-28T08:38:52;100417.34;;;1.98;73.66
68380;BME280;57711;53.196;19.638;2022-12-28T08:41:21;100415.18;;;1.99;73.61
68380;BME280;57711;53.196;19.638;2022-12-28T08:43:50;100403.64;;;2.01;73.60
68380;BME280;57711;53.196;19.638;2022-12-28T08:46:28;100399.95;;;2.07;73.62
68380;BME280;57711;53.196;19.638;2022-12-28T08:48:57;100397.60;;;2.11;73.61
68380;BME280;57711;53.196;19.638;2022-12-28T08:51:30;100397.90;;;2.12;73.61
68380;BME280;57711;53.196;19.638;2022-12-28T08:53:59;100389.86;;;2.12;73.59
68380;BME280;57711;53.196;19.638;2022-12-28T08:56:30;100391.16;;;2.15;73.56
68380;BME280;57711;53.196;19.638;2022-12-28T08:58:58;100393.07;;;2.16;73.55
68380;BME280;57711;53.196;19.638;2022-12-28T09:01:27;100394.40;;;2.17;73.59
68380;BME280;57711;53.196;19.638;2022-12-28T09:03:58;100389.34;;;2.19;73.61
68380;BME280;57711;53.196;19.638;2022-12-28T09:06:31;100385.93;;;2.19;73.61
68380;BME280;57711;53.196;19.638;2022-12-28T09:08:59;100384.16;;;2.22;73.63
68380;BME280;57711;53.196;19.638;2022-12-28T09:11:34;100385.20;;;2.26;73.66
68380;BME280;57711;53.196;19.638;2022-12-28T09:14:03;100383.92;;;2.30;73.68
68380;BME280;57711;53.196;19.638;2022-12-28T09:16:31;100385.21;;;2.33;73.66
68380;BME280;57711;53.196;19.638;2022-12-28T09:19:00;100384.04;;;2.35;73.67
68380;BME280;57711;53.196;19.638;2022-12-28T09:21:31;100378.34;;;2.38;73.60
68380;BME280;57711;53.196;19.638;2022-12-28T09:23:59;100370.22;;;2.43;73.70
68380;BME280;57711;53.196;19.638;2022-12-28T09:26:29;100368.55;;;2.47;73.59
68380;BME280;57711;53.196;19.638;2022-12-28T09:28:59;100370.13;;;2.48;73.64
68380;BME280;57711;53.196;19.638;2022-12-28T09:31:28;100365.86;;;2.48;73.64
68380;BME280;57711;53.196;19.638;2022-12-28T09:33:56;100366.90;;;2.48;73.66
68380;BME280;57711;53.196;19.638;2022-12-28T09:36:47;100355.39;;;2.50;73.41
68380;BME280;57711;53.196;19.638;2022-12-28T09:39:16;100352.94;;;2.52;73.53
68380;BME280;57711;53.196;19.638;2022-12-28T09:41:58;100349.63;;;2.51;73.56
68380;BME280;57711;53.196;19.638;2022-12-28T09:44:39;100341.39;;;2.52;73.55
68380;BME280;57711;53.196;19.638;2022-12-28T09:55:59;100323.06;;;2.60;73.58
68380;BME280;57711;53.196;19.638;2022-12-28T09:58:29;100319.91;;;2.62;73.60
68380;BME280;57711;53.196;19.638;2022-12-28T10:01:01;100319.27;;;2.64;73.49
68380;BME280;57711;53.196;19.638;2022-12-28T10:03:38;100315.30;;;2.65;73.56
68380;BME280;57711;53.196;19.638;2022-12-28T10:06:11;100314.63;;;2.64;73.54
68380;BME280;57711;53.196;19.638;2022-12-28T10:08:44;100317.40;;;2.65;73.60
68380;BME280;57711;53.196;19.638;2022-12-28T10:11:19;100307.74;;;2.66;73.53
68380;BME280;57711;53.196;19.638;2022-12-28T10:13:54;100308.19;;;2.65;73.49
68380;BME280;57711;53.196;19.638;2022-12-28T10:16:26;100299.55;;;2.63;73.52
68380;BME280;57711;53.196;19.638;2022-12-28T10:18:54;100299.30;;;2.64;73.55
68380;BME280;57711;53.196;19.638;2022-12-28T10:21:23;100292.21;;;2.66;73.55
68380;BME280;57711;53.196;19.638;2022-12-28T10:23:59;100284.95;;;2.68;73.61
68380;BME280;57711;53.196;19.638;2022-12-28T10:26:46;100277.58;;;2.66;73.44
68380;BME280;57711;53.196;19.638;2022-12-28T10:29:18;100280.08;;;2.65;73.55
68380;BME280;57711;53.196;19.638;2022-12-28T10:32:06;100272.91;;;2.67;73.56
68380;BME280;57711;53.196;19.638;2022-12-28T10:34:54;100262.66;;;2.68;73.52
68380;BME280;57711;53.196;19.638;2022-12-28T10:37:23;100253.75;;;2.68;73.49
68380;BME280;57711;53.196;19.638;2022-12-28T10:39:54;100257.45;;;2.69;73.52
68380;BME280;57711;53.196;19.638;2022-12-28T10:42:35;100249.48;;;2.68;73.56
68380;BME280;57711;53.196;19.638;2022-12-28T10:45:16;100243.87;;;2.69;73.57
68380;BME280;57711;53.196;19.638;2022-12-28T10:47:52;100239.03;;;2.69;73.50
68380;BME280;57711;53.196;19.638;2022-12-28T10:53:31;100220.50;;;2.72;73.60
68380;BME280;57711;53.196;19.638;2022-12-28T10:56:27;100210.27;;;2.73;73.56
68380;BME280;57711;53.196;19.638;2022-12-28T10:59:18;100194.36;;;2.76;73.48
68380;BME280;57711;53.196;19.638;2022-12-28T11:01:46;100183.29;;;2.79;73.64
68380;BME280;57711;53.196;19.638;2022-12-28T11:06:59;100177.08;;;2.81;73.61
68380;BME280;57711;53.196;19.638;2022-12-28T11:09:31;100175.08;;;2.82;73.46
68380;BME280;57711;53.196;19.638;2022-12-28T11:12:22;100169.90;;;2.82;73.49
68380;BME280;57711;53.196;19.638;2022-12-28T11:14:50;100165.93;;;2.82;73.56
68380;BME280;57711;53.196;19.638;2022-12-28T11:19:53;100153.54;;;2.84;73.55
68380;BME280;57711;53.196;19.638;2022-12-28T11:22:23;100142.23;;;2.88;73.64
68380;BME280;57711;53.196;19.638;2022-12-28T11:24:51;100149.11;;;2.89;73.55
68380;BME280;57711;53.196;19.638;2022-12-28T11:27:20;100138.98;;;2.89;73.49
68380;BME280;57711;53.196;19.638;2022-12-28T11:29:51;100126.73;;;2.90;73.67
68380;BME280;57711;53.196;19.638;2022-12-28T11:32:25;100119.48;;;2.92;73.55
68380;BME280;57711;53.196;19.638;2022-12-28T11:34:54;100118.85;;;2.94;73.54
68380;BME280;57711;53.196;19.638;2022-12-28T11:37:22;100119.92;;;2.94;73.49
68380;BME280;57711;53.196;19.638;2022-12-28T11:39:51;100126.20;;;2.93;73.52
68380;BME280;57711;53.196;19.638;2022-12-28T11:45:48;100121.52;;;2.97;73.48
68380;BME280;57711;53.196;19.638;2022-12-28T11:56:13;100112.36;;;2.97;73.47
68380;BME280;57711;53.196;19.638;2022-12-28T12:12:02;100084.00;;;3.06;73.53
68380;BME280;57711;53.196;19.638;2022-12-28T12:15:09;100080.23;;;3.06;73.43
68380;BME280;57711;53.196;19.638;2022-12-28T12:17:48;100072.95;;;3.09;73.52
68380;BME280;57711;53.196;19.638;2022-12-28T12:20:42;100066.84;;;3.12;73.59
68380;BME280;57711;53.196;19.638;2022-12-28T12:25:53;100058.23;;;3.21;73.70
68380;BME280;57711;53.196;19.638;2022-12-28T12:28:36;100052.69;;;3.27;73.61
68380;BME280;57711;53.196;19.638;2022-12-28T12:31:07;100047.39;;;3.32;73.54
68380;BME280;57711;53.196;19.638;2022-12-28T12:33:41;100035.52;;;3.33;73.60
68380;BME280;57711;53.196;19.638;2022-12-28T12:36:37;100034.27;;;3.36;73.53
68380;BME280;57711;53.196;19.638;2022-12-28T12:42:03;100032.18;;;3.38;73.53
68380;BME280;57711;53.196;19.638;2022-12-28T12:53:25;100034.30;;;3.44;73.51
68380;BME280;57711;53.196;19.638;2022-12-28T12:56:27;100028.42;;;3.47;73.54
68380;BME280;57711;53.196;19.638;2022-12-28T12:59:15;100029.70;;;3.49;73.51
68380;BME280;57711;53.196;19.638;2022-12-28T13:05:03;100014.70;;;3.49;73.40
68380;BME280;57711;53.196;19.638;2022-12-28T13:07:31;100008.86;;;3.51;73.49
68380;BME280;57711;53.196;19.638;2022-12-28T13:10:02;100010.86;;;3.53;73.35
68380;BME280;57711;53.196;19.638;2022-12-28T13:12:30;100006.20;;;3.53;73.41
68380;BME280;57711;53.196;19.638;2022-12-28T13:15:00;100004.41;;;3.53;73.53
68380;BME280;57711;53.196;19.638;2022-12-28T13:17:34;100004.95;;;3.53;73.50
68380;BME280;57711;53.196;19.638;2022-12-28T13:20:18;100000.56;;;3.55;73.37
68380;BME280;57711;53.196;19.638;2022-12-28T13:22:47;99997.72;;;3.57;73.42
68380;BME280;57711;53.196;19.638;2022-12-28T13:25:29;99997.81;;;3.58;73.32
68380;BME280;57711;53.196;19.638;2022-12-28T13:27:58;99997.56;;;3.59;73.55
68380;BME280;57711;53.196;19.638;2022-12-28T13:30:27;99992.70;;;3.60;73.54
68380;BME280;57711;53.196;19.638;2022-12-28T13:32:57;99994.35;;;3.62;73.41
68380;BME280;57711;53.196;19.638;2022-12-28T13:35:29;99986.29;;;3.63;73.40
68380;BME280;57711;53.196;19.638;2022-12-28T13:38:11;99981.38;;;3.61;73.39
68380;BME280;57711;53.196;19.638;2022-12-28T13:40:40;99983.75;;;3.57;73.40
68380;BME280;57711;53.196;19.638;2022-12-28T13:45:54;99971.21;;;3.55;73.40
68380;BME280;57711;53.196;19.638;2022-12-28T13:48:24;99971.01;;;3.53;73.60
68380;BME280;57711;53.196;19.638;2022-12-28T13:50:53;99970.87;;;3.49;73.55
68380;BME280;57711;53.196;19.638;2022-12-28T13:53:24;99967.83;;;3.49;73.55
68380;BME280;57711;53.196;19.638;2022-12-28T13:55:55;99972.06;;;3.50;73.53
68380;BME280;57711;53.196;19.638;2022-12-28T13:58:28;99971.30;;;3.51;73.47
68380;BME280;57711;53.196;19.638;2022-12-28T14:00:59;99965.79;;;3.51;73.47
68380;BME280;57711;53.196;19.638;2022-12-28T14:03:28;99969.08;;;3.49;73.43
68380;BME280;57711;53.196;19.638;2022-12-28T14:06:03;99966.13;;;3.48;73.52
68380;BME280;57711;53.196;19.638;2022-12-28T14:08:36;99958.66;;;3.48;73.47
68380;BME280;57711;53.196;19.638;2022-12-28T14:11:04;99953.19;;;3.46;73.57
68380;BME280;57711;53.196;19.638;2022-12-28T14:13:32;99941.77;;;3.46;73.47
68380;BME280;57711;53.196;19.638;2022-12-28T14:16:01;99939.70;;;3.45;73.44
68380;BME280;57711;53.196;19.638;2022-12-28T14:18:30;99935.08;;;3.44;73.54
68380;BME280;57711;53.196;19.638;2022-12-28T14:21:00;99935.91;;;3.45;73.48
68380;BME280;57711;53.196;19.638;2022-12-28T14:23:33;99938.52;;;3.47;73.47
68380;BME280;57711;53.196;19.638;2022-12-28T14:26:06;99927.84;;;3.46;73.64
68380;BME280;57711;53.196;19.638;2022-12-28T14:28:37;99929.57;;;3.44;73.51
68380;BME280;57711;53.196;19.638;2022-12-28T14:31:07;99926.61;;;3.43;73.57
68380;BME280;57711;53.196;19.638;2022-12-28T14:33:39;99929.73;;;3.44;73.60
68380;BME280;57711;53.196;19.638;2022-12-28T14:36:19;99927.30;;;3.46;73.53
68380;BME280;57711;53.196;19.638;2022-12-28T14:38:50;99927.38;;;3.45;73.54
68380;BME280;57711;53.196;19.638;2022-12-28T14:41:21;99919.02;;;3.44;73.64
68380;BME280;57711;53.196;19.638;2022-12-28T14:43:53;99922.86;;;3.45;73.57
68380;BME280;57711;53.196;19.638;2022-12-28T14:49:22;99919.34;;;3.48;73.52
68380;BME280;57711;53.196;19.638;2022-12-28T14:51:47;99917.19;;;3.47;73.43
68380;BME280;57711;53.196;19.638;2022-12-28T14:54:24;99912.44;;;3.47;73.57